Buffalo, New York
Current Conditions -  °F | °C
As of 2:54 PM on Monday 24 Nov 2014 (Local Time) from KBUF Reporting Station
Light Rain Light Rain  
Wind Chill: 13°   Ceiling: 6000
Heat Index: 13°   Visibility: 10mi
Dew Point:   Wind: 24mph
Humidity: 80%   Direction: 250°WSW
Pressure: 29.3"   Gusts: 38mph
Location:  42.89°N, 78.88°W
Report Text: KBUF 241954Z 25021G33KT 10SM -RA FEW017 FEW045 OVC060 13/09 A2930 RMK AO2 PK WND 27038/1929 WSHFT 1921 RAB31 SLP924 T01280094 PNO $
Loading
Personal Weather Stations






























Interactive Weather Map New forecast layout! Learn more

10-Day Weather Forecast

Advertisements
Track Severe Weather on mobile